createdAt,value
2019-03-22T00:04:50.469Z,4
2019-03-22T00:10:45.444Z,3.79
2019-03-22T00:16:40.478Z,5.42
2019-03-22T00:22:35.448Z,4.69
2019-03-22T00:28:30.470Z,3.91
2019-03-22T00:34:25.522Z,3.92
2019-03-22T00:40:20.489Z,3.96
2019-03-22T00:46:15.474Z,3.87
2019-03-22T00:52:10.498Z,3.88
2019-03-22T00:58:05.525Z,4.21
2019-03-22T01:04:00.490Z,4.08
2019-03-22T01:09:55.491Z,4.31
2019-03-22T01:15:50.498Z,3.94
2019-03-22T01:21:45.514Z,4.08
2019-03-22T01:27:41.155Z,3.88
2019-03-22T01:33:35.506Z,4.4
2019-03-22T01:39:30.547Z,4.2
2019-03-22T01:45:25.520Z,4.16
2019-03-22T01:51:20.577Z,4.33
2019-03-22T01:57:15.539Z,4.18
2019-03-22T02:03:10.529Z,4.22
2019-03-22T02:09:05.555Z,4.23
2019-03-22T02:15:00.539Z,3.87
2019-03-22T02:20:55.548Z,3.96
2019-03-22T02:26:50.610Z,4.37
2019-03-22T02:32:45.625Z,4.05
2019-03-22T02:38:40.589Z,4.78
2019-03-22T02:44:35.606Z,4.64
2019-03-22T02:50:30.635Z,4.43
2019-03-22T02:56:25.595Z,4.18
2019-03-22T03:02:20.642Z,4.2
2019-03-22T03:08:15.610Z,4.12
2019-03-22T03:14:10.638Z,4.27
2019-03-22T03:20:05.612Z,4.52
2019-03-22T03:26:00.633Z,4.02
2019-03-22T03:31:55.637Z,4.29
2019-03-22T03:37:50.626Z,4.68
2019-03-22T03:43:45.651Z,3.88
2019-03-22T03:49:40.657Z,4.13
2019-03-22T03:55:35.657Z,4.26
2019-03-22T04:01:30.631Z,4.44
2019-03-22T04:07:25.697Z,5.3
2019-03-22T04:13:20.666Z,5
2019-03-22T04:19:15.752Z,4.94
2019-03-22T04:25:10.712Z,4.47
2019-03-22T04:31:05.700Z,4.46
2019-03-22T04:37:00.691Z,4.64
2019-03-22T04:42:55.698Z,5.27
2019-03-22T04:48:50.726Z,5.01
2019-03-22T04:54:45.694Z,5.14
2019-03-22T05:00:40.682Z,5
2019-03-22T05:06:35.706Z,5.04
2019-03-22T05:12:30.764Z,5.13
2019-03-22T05:18:25.731Z,5.12
2019-03-22T05:24:20.797Z,4.92
2019-03-22T05:30:15.752Z,6.58
2019-03-22T05:36:10.732Z,4.67
2019-03-22T05:42:05.744Z,5.79
2019-03-22T05:48:00.754Z,5.95
2019-03-22T05:53:55.743Z,5.38
2019-03-22T05:59:50.736Z,6.22
2019-03-22T06:05:45.758Z,5.57
2019-03-22T06:11:40.756Z,7.2
2019-03-22T06:17:35.760Z,6.95
2019-03-22T06:23:30.859Z,7.11
2019-03-22T06:29:25.810Z,6.99
2019-03-22T06:35:20.779Z,6.45
2019-03-22T06:41:19.965Z,7.12
2019-03-22T06:47:11.339Z,7
2019-03-22T06:53:05.820Z,6.59
2019-03-22T06:59:00.816Z,8.43
2019-03-22T07:04:55.877Z,7.47
2019-03-22T07:10:50.812Z,7.53
2019-03-22T07:16:45.813Z,7.3
2019-03-22T07:22:40.825Z,7.76
2019-03-22T07:28:35.864Z,8.04
2019-03-22T07:34:30.820Z,7.32
2019-03-22T07:40:25.815Z,6.88
2019-03-22T07:46:20.869Z,7.36
2019-03-22T07:52:15.861Z,7.37
2019-03-22T07:58:10.876Z,6.35
2019-03-22T08:04:05.852Z,6.12
2019-03-22T08:10:00.899Z,6.38
2019-03-22T08:15:57.505Z,6.51
2019-03-22T08:21:50.879Z,6.69
2019-03-22T08:27:45.869Z,6.72
2019-03-22T08:33:40.917Z,7.27
2019-03-22T08:39:35.925Z,7.31
2019-03-22T08:45:30.943Z,7.12
2019-03-22T08:51:25.890Z,6.69
2019-03-22T08:57:20.930Z,6.93
2019-03-22T09:03:15.914Z,7.1
2019-03-22T09:09:10.990Z,7.86
2019-03-22T09:15:05.940Z,7.87
2019-03-22T09:21:00.995Z,8.35
2019-03-22T09:26:55.929Z,8.24
2019-03-22T09:32:50.949Z,7.85
2019-03-22T09:38:46.001Z,7.25
2019-03-22T09:44:43.683Z,7.6
2019-03-22T09:50:35.945Z,8.04
2019-03-22T09:56:30.965Z,8.48
2019-03-22T10:02:25.973Z,8.82
2019-03-22T10:08:20.979Z,9.31
2019-03-22T10:14:15.970Z,9.09
2019-03-22T10:20:11.000Z,8.89
2019-03-22T10:26:06.019Z,9.35
2019-03-22T10:32:01.062Z,8.98
2019-03-22T10:38:00.299Z,10.03
2019-03-22T10:43:51.045Z,9.7
2019-03-22T10:49:46.009Z,9.47
2019-03-22T10:55:41.043Z,9.88
2019-03-22T11:01:46.739Z,10.05
2019-03-22T11:07:31.021Z,10.05
2019-03-22T11:13:26.035Z,9.89
2019-03-22T11:19:21.048Z,10.01
2019-03-22T11:25:16.050Z,10.33
2019-03-22T11:31:11.057Z,9.93
2019-03-22T11:37:07.710Z,10.1
2019-03-22T11:43:08.405Z,9.56
2019-03-22T11:48:56.071Z,9.62
2019-03-22T11:54:51.057Z,9.35
2019-03-22T12:00:46.065Z,10.61
2019-03-22T12:06:41.094Z,10.02
2019-03-22T12:12:36.168Z,10.5
2019-03-22T12:18:31.078Z,10.19
2019-03-22T12:24:26.098Z,10.49
2019-03-22T12:30:21.106Z,9.87
2019-03-22T12:36:16.109Z,9.41
2019-03-22T12:42:11.121Z,9.3
2019-03-22T12:48:06.148Z,9.44
2019-03-22T12:54:01.108Z,11.79
2019-03-22T12:59:56.141Z,10.07
2019-03-22T13:05:51.176Z,10.09
2019-03-22T13:11:46.158Z,9.92
2019-03-22T13:17:41.156Z,8.97
2019-03-22T13:23:36.139Z,8.9
2019-03-22T13:29:31.165Z,10.28
2019-03-22T13:35:26.164Z,9.94
2019-03-22T13:41:21.164Z,10.33
2019-03-22T13:47:16.212Z,9.22
2019-03-22T13:53:11.169Z,9.52
2019-03-22T13:59:06.191Z,9.92
2019-03-22T14:05:01.198Z,10.25
2019-03-22T14:10:56.192Z,9.18
2019-03-22T14:16:51.202Z,9.73
2019-03-22T14:22:46.202Z,9.31
2019-03-22T14:28:41.293Z,10.26
2019-03-22T14:34:36.252Z,10.85
2019-03-22T14:40:31.263Z,9.6
2019-03-22T14:46:26.246Z,9.76
2019-03-22T14:52:21.279Z,9.42
2019-03-22T14:58:16.248Z,9.79
2019-03-22T15:04:11.302Z,8.66
2019-03-22T15:10:06.288Z,9.83
2019-03-22T15:16:01.279Z,9.55
2019-03-22T15:21:56.308Z,9.45
2019-03-22T15:27:51.266Z,9
2019-03-22T15:33:46.444Z,9.06
2019-03-22T15:39:41.319Z,8.29
2019-03-22T15:45:36.364Z,9.02
2019-03-22T15:51:31.315Z,9.52
2019-03-22T15:57:26.326Z,9.75
2019-03-22T16:03:21.368Z,9.08
2019-03-22T16:09:16.320Z,9.31
2019-03-22T16:15:11.337Z,9.08
2019-03-22T16:21:06.371Z,9.24
2019-03-22T16:27:01.382Z,9
2019-03-22T16:32:56.348Z,8.96
2019-03-22T16:38:51.349Z,9.5
2019-03-22T16:44:46.426Z,10.41
2019-03-22T16:50:41.415Z,9.55
2019-03-22T16:56:36.441Z,9.54
2019-03-22T17:02:31.406Z,10.7
2019-03-22T17:08:26.477Z,10.49
2019-03-22T17:14:21.843Z,10.06
2019-03-22T17:20:16.399Z,10.63
2019-03-22T17:26:11.394Z,10.13
2019-03-22T17:32:06.439Z,10.24
